aviador You're here:

LYKV Decoded Metar

KRALJEVO/LADEVCI in SERBIA
Report Time2017-08-19 20:00:00
UTC Time2017-08-19 20:30:39
Flight Rules vfr VFR
WindVRB at 01 kt
Visibility9999 m
Phenomena:N/A
Clouds:N/A
Expected CloudBase > 4,000 ft AGL from Temp-Dew spread
CeilingNone
Temp23°C (ISA +9)
Dew Point13°C (53% RH)
QNH1014 hPa
Density Alt1,952 ft
Elevation694 ft
Report Wrong Elevation
Raw Report
METAR LYKV 192000Z VRB01KT CAVOK 23/13 Q1014 NOSIG=

Extra information for LYKV:More info

Metar Taf Metar & Taf Last 4 Metars F.Rules Stats Wind Profile Meteogram Temp Stats Airport Information Weather charts Add Link Nearby VenuesMetar ALERT Operation Metar Decoded Social comments